Time;durP1;ratioP1;P1;durP2;ratioP2;P2;SDS_P1;SDS_P2;PMS_P1;PMS_P2;Temp;Humidity;BMP_temperature;BMP_pressure;BME280_temperature;BME280_humidity;BME280_pressure;Samples;Min_cycle;Max_cycle;Signal;HPM_P1;HPM_P2
2021/05/31 00:01:27;;;;;;;1.90;1.50;;;;;;;;;;4994280;28;20464;-68
2021/05/31 00:03:54;;;;;;;3.53;1.92;;;;;;;;;;4994247;28;20109;-68
2021/05/31 00:06:20;;;;;;;2.97;1.92;;;;;;;;;;4994190;28;20054;-68
2021/05/31 00:08:47;;;;;;;2.95;1.88;;;;;;;;;;4992935;28;20489;-68
2021/05/31 00:11:14;;;;;;;2.70;1.90;;;;;;;;;;4992968;28;20516;-68
2021/05/31 00:13:40;;;;;;;3.72;1.67;;;;;;;;;;4993053;28;20528;-70
2021/05/31 00:16:07;;;;;;;4.03;1.80;;;;;;;;;;4977099;28;20465;-68
2021/05/31 00:18:33;;;;;;;2.90;2.05;;;;;;;;;;4993189;28;20460;-68
2021/05/31 00:21:00;;;;;;;2.85;1.67;;;;;;;;;;4992849;28;20529;-68
2021/05/31 00:23:27;;;;;;;2.90;2.15;;;;;;;;;;4992717;28;20486;-68
2021/05/31 00:25:53;;;;;;;2.50;2.08;;;;;;;;;;4976595;28;20563;-68
2021/05/31 00:28:20;;;;;;;3.05;1.90;;;;;;;;;;4993928;28;20082;-68
2021/05/31 00:30:46;;;;;;;3.15;2.00;;;;;;;;;;4993802;28;20113;-68
2021/05/31 00:33:13;;;;;;;3.53;2.20;;;;;;;;;;4992720;28;20081;-69
2021/05/31 00:35:40;;;;;;;3.60;2.03;;;;;;;;;;4992348;28;20429;-68
2021/05/31 00:38:06;;;;;;;2.97;2.20;;;;;;;;;;4976821;28;20100;-68
2021/05/31 00:40:33;;;;;;;3.30;1.95;;;;;;;;;;4976302;28;20054;-70
2021/05/31 00:42:59;;;;;;;3.30;1.92;;;;;;;;;;4992538;28;20100;-69
2021/05/31 00:45:28;;;;;;;2.10;1.70;;;;;;;;;;4993459;28;20108;-68
2021/05/31 00:47:55;;;;;;;3.10;1.95;;;;;;;;;;4993676;28;20086;-68
2021/05/31 00:50:22;;;;;;;3.65;2.30;;;;;;;;;;4976477;28;20082;-68
2021/05/31 00:52:48;;;;;;;4.53;1.92;;;;;;;;;;4976158;28;20490;-68
2021/05/31 00:55:15;;;;;;;2.45;2.08;;;;;;;;;;4993383;28;20458;-70
2021/05/31 00:57:42;;;;;;;4.13;1.98;;;;;;;;;;4976336;28;20084;-68
2021/05/31 01:00:10;;;;;;;2.60;2.08;;;;;;;;;;4993387;28;20050;-70
2021/05/31 01:02:37;;;;;;;2.13;1.90;;;;;;;;;;4991446;28;20097;-69
2021/05/31 01:05:05;;;;;;;3.55;2.10;;;;;;;;;;4976178;28;20474;-69
2021/05/31 01:07:49;;;;;;;2.55;2.17;;;;;;;;;;4976055;28;20489;-68
2021/05/31 01:10:16;;;;;;;3.83;1.95;;;;;;;;;;4992038;28;20489;-68
2021/05/31 01:13:32;;;;;;;2.83;2.03;;;;;;;;;;4991728;28;20097;-68
2021/05/31 01:16:05;;;;;;;3.15;2.22;;;;;;;;;;4987671;28;20082;-68
2021/05/31 01:18:35;;;;;;;4.57;2.45;;;;;;;;;;4976091;28;20054;-70
2021/05/31 01:21:23;;;;;;;3.17;2.00;;;;;;;;;;4991696;28;20521;-68
2021/05/31 01:24:35;;;;;;;4.03;2.30;;;;;;;;;;4992778;28;20097;-69
2021/05/31 01:27:17;;;;;;;5.30;2.33;;;;;;;;;;4992864;28;20096;-69
2021/05/31 01:29:46;;;;;;;2.97;2.10;;;;;;;;;;4976472;28;20117;-68
2021/05/31 01:32:13;;;;;;;3.22;2.30;;;;;;;;;;4976289;28;20096;-68
2021/05/31 01:34:40;;;;;;;2.88;2.13;;;;;;;;;;4991690;28;20121;-68
2021/05/31 01:37:12;;;;;;;3.17;2.42;;;;;;;;;;4975418;28;20046;-68
2021/05/31 01:39:39;;;;;;;2.70;2.30;;;;;;;;;;4991393;28;20115;-68
2021/05/31 01:42:07;;;;;;;4.35;2.33;;;;;;;;;;4975397;28;20050;-68
2021/05/31 01:44:33;;;;;;;3.35;2.13;;;;;;;;;;4975618;28;20047;-68
2021/05/31 01:47:00;;;;;;;5.30;2.80;;;;;;;;;;4991321;28;20094;-70
2021/05/31 01:49:27;;;;;;;2.88;2.38;;;;;;;;;;4991563;28;20073;-68
2021/05/31 01:51:54;;;;;;;2.80;2.03;;;;;;;;;;4975105;28;20050;-68
2021/05/31 01:54:20;;;;;;;4.22;2.20;;;;;;;;;;4991410;28;20146;-70
2021/05/31 01:56:49;;;;;;;3.72;2.47;;;;;;;;;;4974978;28;20558;-68
2021/05/31 01:59:18;;;;;;;3.75;2.22;;;;;;;;;;5007633;28;20105;-68
2021/05/31 02:01:46;;;;;;;3.92;2.10;;;;;;;;;;4975184;28;20450;-69
2021/05/31 02:04:13;;;;;;;3.08;2.60;;;;;;;;;;4975146;28;20047;-70
2021/05/31 02:06:39;;;;;;;3.42;2.20;;;;;;;;;;4992522;28;20050;-68
2021/05/31 02:09:06;;;;;;;4.05;2.15;;;;;;;;;;4991270;28;20497;-68
2021/05/31 02:11:45;;;;;;;2.75;2.30;;;;;;;;;;4990957;28;20078;-68
2021/05/31 02:14:15;;;;;;;3.63;2.80;;;;;;;;;;4993666;28;20069;-68
2021/05/31 02:16:58;;;;;;;4.85;2.65;;;;;;;;;;4995935;28;20097;-68
2021/05/31 02:19:24;;;;;;;3.90;2.60;;;;;;;;;;4980983;28;20086;-68
2021/05/31 02:21:51;;;;;;;4.15;2.50;;;;;;;;;;4979027;28;20077;-68
2021/05/31 02:24:19;;;;;;;3.75;2.60;;;;;;;;;;4979333;28;20085;-68
2021/05/31 02:26:46;;;;;;;4.45;2.55;;;;;;;;;;4978764;28;20050;-68
2021/05/31 02:29:12;;;;;;;4.20;2.55;;;;;;;;;;4979182;28;20100;-68
2021/05/31 02:31:39;;;;;;;4.50;2.78;;;;;;;;;;4994688;28;20501;-68
2021/05/31 02:34:07;;;;;;;3.78;2.83;;;;;;;;;;4994892;28;20133;-68
2021/05/31 02:36:34;;;;;;;3.67;2.65;;;;;;;;;;4994586;28;20050;-69
2021/05/31 02:39:00;;;;;;;3.75;2.47;;;;;;;;;;4994835;28;20093;-68
2021/05/31 02:41:28;;;;;;;4.50;2.83;;;;;;;;;;4978555;28;20532;-69
2021/05/31 02:43:54;;;;;;;4.57;2.50;;;;;;;;;;4994717;28;20073;-68
2021/05/31 02:46:21;;;;;;;6.55;2.70;;;;;;;;;;4995798;28;20480;-68
2021/05/31 02:48:50;;;;;;;3.42;2.47;;;;;;;;;;4995627;28;20088;-68
2021/05/31 02:51:16;;;;;;;10.80;2.90;;;;;;;;;;4995067;28;20058;-70
2021/05/31 02:53:43;;;;;;;5.07;2.83;;;;;;;;;;4995475;28;20485;-70
2021/05/31 02:56:09;;;;;;;2.42;2.22;;;;;;;;;;4995515;28;20501;-69
2021/05/31 02:58:36;;;;;;;3.28;2.30;;;;;;;;;;4995320;28;20090;-70
2021/05/31 03:01:02;;;;;;;7.40;2.75;;;;;;;;;;4994287;28;20093;-70
2021/05/31 03:03:29;;;;;;;4.43;2.42;;;;;;;;;;4995400;28;20141;-70
2021/05/31 03:05:57;;;;;;;3.97;2.58;;;;;;;;;;4993874;28;20517;-70
2021/05/31 03:08:23;;;;;;;4.00;2.80;;;;;;;;;;4995320;28;20054;-70
2021/05/31 03:10:50;;;;;;;3.22;2.60;;;;;;;;;;4993824;28;20078;-70
2021/05/31 03:13:17;;;;;;;5.15;3.03;;;;;;;;;;4994197;28;20083;-71
2021/05/31 03:15:43;;;;;;;6.50;2.67;;;;;;;;;;4995072;28;20117;-71
2021/05/31 03:18:10;;;;;;;2.80;2.30;;;;;;;;;;4995080;28;20051;-71
2021/05/31 03:20:37;;;;;;;4.63;2.75;;;;;;;;;;4995034;28;20104;-71
2021/05/31 03:23:03;;;;;;;4.55;2.30;;;;;;;;;;4995083;28;20046;-71
2021/05/31 03:25:30;;;;;;;3.47;2.45;;;;;;;;;;4994290;28;20235;-71
2021/05/31 03:27:58;;;;;;;3.28;2.72;;;;;;;;;;4993682;28;20094;-70
2021/05/31 03:30:25;;;;;;;3.15;2.72;;;;;;;;;;4977888;28;20089;-71
2021/05/31 03:32:52;;;;;;;2.88;2.58;;;;;;;;;;4977584;28;20532;-71
2021/05/31 03:35:19;;;;;;;6.05;3.03;;;;;;;;;;4994903;28;20042;-71
2021/05/31 03:37:46;;;;;;;3.53;2.53;;;;;;;;;;4977330;28;20058;-71
2021/05/31 03:40:14;;;;;;;4.15;2.60;;;;;;;;;;4994806;28;20100;-70
2021/05/31 03:42:41;;;;;;;3.65;2.50;;;;;;;;;;4961431;28;20094;-71
2021/05/31 03:45:09;;;;;;;6.15;2.40;;;;;;;;;;4993578;28;20085;-71
2021/05/31 03:47:37;;;;;;;3.88;2.13;;;;;;;;;;4993306;28;20051;-70
2021/05/31 03:50:04;;;;;;;3.92;2.28;;;;;;;;;;4993227;28;20120;-71
2021/05/31 03:52:31;;;;;;;2.92;2.58;;;;;;;;;;4977395;28;20445;-70
2021/05/31 03:54:57;;;;;;;3.42;2.65;;;;;;;;;;4994656;28;20047;-71
2021/05/31 03:57:24;;;;;;;2.70;2.08;;;;;;;;;;4994301;28;20159;-70
2021/05/31 03:59:52;;;;;;;5.78;2.33;;;;;;;;;;4993027;28;20197;-71
2021/05/31 04:02:19;;;;;;;3.80;2.40;;;;;;;;;;4994891;28;20418;-72
2021/05/31 04:04:49;;;;;;;2.53;2.30;;;;;;;;;;4993631;28;20133;-71
2021/05/31 04:12:34;;;;;;;3.38;2.45;;;;;;;;;;4993886;28;20093;-71
2021/05/31 04:15:01;;;;;;;4.22;2.30;;;;;;;;;;4993621;28;20104;-72
2021/05/31 04:17:28;;;;;;;2.58;2.10;;;;;;;;;;4977169;28;20078;-71
2021/05/31 04:19:55;;;;;;;3.20;2.50;;;;;;;;;;4994577;28;20058;-71
2021/05/31 04:22:21;;;;;;;4.00;2.78;;;;;;;;;;4993553;28;20089;-70
2021/05/31 04:24:48;;;;;;;4.35;2.25;;;;;;;;;;4993347;28;20453;-71
2021/05/31 04:27:14;;;;;;;6.40;3.05;;;;;;;;;;4994483;28;20536;-72
2021/05/31 04:29:41;;;;;;;5.90;3.22;;;;;;;;;;4994247;28;20050;-70
2021/05/31 04:32:07;;;;;;;2.83;2.00;;;;;;;;;;4993669;28;20505;-69
2021/05/31 04:34:34;;;;;;;4.63;2.40;;;;;;;;;;4992389;28;20050;-70
2021/05/31 04:37:01;;;;;;;7.63;3.20;;;;;;;;;;4993149;28;20134;-70
2021/05/31 04:39:27;;;;;;;2.67;2.38;;;;;;;;;;4993334;28;20082;-69
2021/05/31 04:41:54;;;;;;;3.50;2.25;;;;;;;;;;4995352;28;20082;-71
2021/05/31 04:44:20;;;;;;;2.35;2.15;;;;;;;;;;4995638;28;20081;-71
2021/05/31 04:46:47;;;;;;;4.32;2.28;;;;;;;;;;4994544;28;20070;-71
2021/05/31 04:49:14;;;;;;;3.03;2.13;;;;;;;;;;4993481;28;20053;-69
2021/05/31 04:51:40;;;;;;;5.30;3.20;;;;;;;;;;4992830;28;20046;-71
2021/05/31 04:54:07;;;;;;;4.95;3.13;;;;;;;;;;4994143;28;20437;-71
2021/05/31 04:56:34;;;;;;;3.17;2.53;;;;;;;;;;4995059;28;20403;-69
2021/05/31 04:59:01;;;;;;;3.53;2.40;;;;;;;;;;4994353;28;20047;-71
2021/05/31 05:01:27;;;;;;;4.07;2.75;;;;;;;;;;4994066;28;20050;-71
2021/05/31 05:03:54;;;;;;;5.68;2.70;;;;;;;;;;4993529;28;20046;-70
2021/05/31 05:06:20;;;;;;;3.88;2.85;;;;;;;;;;4992829;28;20084;-70
2021/05/31 05:08:50;;;;;;;4.82;2.75;;;;;;;;;;4992963;28;20101;-70
2021/05/31 05:11:21;;;;;;;3.22;2.63;;;;;;;;;;4992051;28;20057;-70
2021/05/31 05:13:50;;;;;;;3.95;3.10;;;;;;;;;;4991901;28;20374;-70
2021/05/31 05:16:17;;;;;;;5.97;2.83;;;;;;;;;;4992815;28;20051;-70
2021/05/31 05:18:44;;;;;;;3.53;2.83;;;;;;;;;;4975602;28;20066;-70
2021/05/31 05:21:11;;;;;;;3.40;2.80;;;;;;;;;;4991503;28;20556;-70
2021/05/31 05:23:37;;;;;;;5.57;2.92;;;;;;;;;;4975579;28;20094;-70
2021/05/31 05:26:04;;;;;;;3.10;2.50;;;;;;;;;;4991355;28;20046;-70
2021/05/31 05:28:32;;;;;;;4.38;2.65;;;;;;;;;;4975650;28;20081;-71
2021/05/31 05:31:03;;;;;;;3.90;2.28;;;;;;;;;;4975487;28;20046;-70
2021/05/31 05:33:31;;;;;;;5.60;3.00;;;;;;;;;;4992934;28;20054;-71
2021/05/31 05:36:03;;;;;;;7.03;3.17;;;;;;;;;;4992637;28;20093;-70
2021/05/31 05:38:41;;;;;;;5.28;2.78;;;;;;;;;;4991614;28;20081;-70
2021/05/31 05:44:18;;;;;;;4.03;3.05;;;;;;;;;;4992536;28;20094;-69
2021/05/31 05:49:25;;;;;;;4.72;2.90;;;;;;;;;;4992314;28;20054;-70
2021/05/31 05:51:52;;;;;;;6.57;2.47;;;;;;;;;;4992251;28;20516;-70
2021/05/31 05:54:18;;;;;;;4.20;2.30;;;;;;;;;;4992389;28;20145;-70
2021/05/31 05:56:45;;;;;;;2.83;2.05;;;;;;;;;;4992171;28;20088;-70
2021/05/31 05:59:11;;;;;;;2.75;2.55;;;;;;;;;;4992454;28;20078;-69
2021/05/31 06:01:39;;;;;;;3.78;2.42;;;;;;;;;;4991149;28;20265;-70
2021/05/31 06:04:05;;;;;;;3.20;2.30;;;;;;;;;;4992527;28;20076;-70
2021/05/31 06:06:32;;;;;;;3.13;2.40;;;;;;;;;;4991939;28;20050;-69
2021/05/31 06:08:59;;;;;;;3.08;2.35;;;;;;;;;;4991387;28;20057;-71
2021/05/31 06:11:25;;;;;;;3.47;2.45;;;;;;;;;;4992365;28;20158;-69
2021/05/31 06:13:52;;;;;;;4.65;2.80;;;;;;;;;;4992353;28;20054;-70
2021/05/31 06:16:19;;;;;;;2.78;2.50;;;;;;;;;;4990884;28;20074;-71
2021/05/31 06:18:46;;;;;;;5.53;2.80;;;;;;;;;;4990781;28;20153;-70
2021/05/31 06:21:13;;;;;;;5.30;2.80;;;;;;;;;;4974827;28;20046;-70
2021/05/31 06:23:39;;;;;;;2.33;2.13;;;;;;;;;;4990982;28;20116;-70
2021/05/31 06:26:06;;;;;;;4.05;2.53;;;;;;;;;;4958631;28;20077;-69
2021/05/31 06:28:32;;;;;;;4.47;2.28;;;;;;;;;;4992005;28;20086;-70
2021/05/31 06:30:59;;;;;;;7.93;5.35;;;;;;;;;;4992055;28;20085;-70
2021/05/31 06:33:25;;;;;;;3.20;2.90;;;;;;;;;;4992030;28;20497;-70
2021/05/31 06:35:54;;;;;;;3.85;2.55;;;;;;;;;;4991856;28;20065;-69
2021/05/31 06:38:20;;;;;;;2.60;2.38;;;;;;;;;;4975131;28;20046;-70
2021/05/31 06:40:49;;;;;;;2.92;2.65;;;;;;;;;;4991971;28;20494;-70
2021/05/31 06:43:16;;;;;;;3.00;2.35;;;;;;;;;;4990814;28;20089;-70
2021/05/31 06:45:42;;;;;;;3.40;2.53;;;;;;;;;;4974715;28;20081;-70
2021/05/31 06:48:10;;;;;;;4.05;2.83;;;;;;;;;;4992119;28;20085;-71
2021/05/31 06:50:37;;;;;;;3.50;2.40;;;;;;;;;;5006713;28;20054;-71
2021/05/31 06:53:04;;;;;;;3.03;2.40;;;;;;;;;;4992049;28;20054;-70
2021/05/31 06:55:31;;;;;;;4.38;2.70;;;;;;;;;;4991599;28;20422;-70
2021/05/31 06:57:58;;;;;;;6.50;3.30;;;;;;;;;;4991971;28;20057;-70
2021/05/31 07:00:26;;;;;;;4.22;2.30;;;;;;;;;;4990779;28;20054;-70
2021/05/31 07:02:53;;;;;;;3.50;2.53;;;;;;;;;;4978000;28;20055;-70
2021/05/31 07:05:20;;;;;;;4.00;2.45;;;;;;;;;;4993980;28;20058;-71
2021/05/31 07:07:46;;;;;;;5.93;2.72;;;;;;;;;;4994115;28;20186;-70
2021/05/31 07:10:14;;;;;;;5.05;2.13;;;;;;;;;;4995274;28;20054;-71
2021/05/31 07:12:41;;;;;;;3.92;2.40;;;;;;;;;;4994022;28;20089;-70
2021/05/31 07:15:11;;;;;;;2.20;2.05;;;;;;;;;;4994016;28;20077;-70
2021/05/31 07:17:37;;;;;;;3.03;2.05;;;;;;;;;;4993567;28;20442;-70
2021/05/31 07:20:05;;;;;;;4.70;2.47;;;;;;;;;;4993952;28;20433;-70
2021/05/31 07:22:32;;;;;;;4.32;2.63;;;;;;;;;;4977918;28;20465;-71
2021/05/31 07:24:58;;;;;;;2.85;2.35;;;;;;;;;;4995162;28;20046;-71
2021/05/31 07:27:25;;;;;;;5.05;2.25;;;;;;;;;;4993543;28;20050;-71
2021/05/31 07:29:52;;;;;;;4.00;2.22;;;;;;;;;;4993653;28;20057;-70
2021/05/31 07:32:19;;;;;;;2.92;2.20;;;;;;;;;;4977682;28;20081;-71
2021/05/31 07:34:49;;;;;;;6.47;2.05;;;;;;;;;;4994722;28;20520;-70
2021/05/31 07:37:17;;;;;;;1.70;1.58;;;;;;;;;;4993517;28;20520;-70
2021/05/31 07:39:43;;;;;;;2.10;1.90;;;;;;;;;;4993703;28;20100;-69
2021/05/31 07:42:10;;;;;;;2.38;1.50;;;;;;;;;;4993615;28;20078;-70
2021/05/31 07:44:36;;;;;;;3.47;1.80;;;;;;;;;;4977249;28;20094;-69
2021/05/31 07:47:03;;;;;;;1.63;1.45;;;;;;;;;;4993305;28;20315;-69
2021/05/31 07:49:30;;;;;;;3.35;1.70;;;;;;;;;;4993438;28;20082;-71
2021/05/31 07:52:06;;;;;;;2.85;1.70;;;;;;;;;;4993339;28;20140;-71
2021/05/31 07:54:33;;;;;;;2.97;1.60;;;;;;;;;;4993413;28;20104;-70
2021/05/31 07:57:00;;;;;;;2.78;1.30;;;;;;;;;;4993245;28;20475;-70
2021/05/31 07:59:27;;;;;;;2.28;1.65;;;;;;;;;;4993179;28;20085;-70
2021/05/31 08:01:53;;;;;;;2.47;1.80;;;;;;;;;;4993103;28;20097;-71
2021/05/31 08:04:20;;;;;;;2.45;1.85;;;;;;;;;;4994356;28;20050;-70
2021/05/31 08:06:46;;;;;;;1.65;1.50;;;;;;;;;;4993014;28;20465;-71
2021/05/31 08:09:13;;;;;;;1.75;1.65;;;;;;;;;;4994333;28;20468;-70
2021/05/31 08:11:40;;;;;;;2.50;1.70;;;;;;;;;;5008883;28;20502;-71
2021/05/31 08:14:07;;;;;;;1.40;1.30;;;;;;;;;;4977079;28;20425;-71
2021/05/31 08:16:33;;;;;;;1.88;1.70;;;;;;;;;;4992636;28;20046;-71
2021/05/31 08:19:00;;;;;;;1.65;1.55;;;;;;;;;;4992704;28;20058;-70
2021/05/31 08:21:26;;;;;;;2.45;1.55;;;;;;;;;;4976775;28;20050;-71
2021/05/31 08:23:53;;;;;;;2.63;1.35;;;;;;;;;;4992689;28;20096;-70
2021/05/31 08:26:20;;;;;;;2.50;1.40;;;;;;;;;;4993629;28;20050;-70
2021/05/31 08:28:47;;;;;;;2.05;1.23;;;;;;;;;;4993846;28;20058;-71
2021/05/31 08:31:14;;;;;;;1.38;1.27;;;;;;;;;;4992685;28;20104;-72
2021/05/31 08:33:41;;;;;;;10.65;1.90;;;;;;;;;;4993760;28;20092;-71
2021/05/31 08:36:08;;;;;;;2.67;1.50;;;;;;;;;;4992706;28;20082;-71
2021/05/31 08:38:35;;;;;;;1.70;1.60;;;;;;;;;;4993640;28;20513;-70
2021/05/31 08:41:02;;;;;;;1.88;1.50;;;;;;;;;;4993544;28;20043;-71
2021/05/31 08:43:28;;;;;;;1.60;1.50;;;;;;;;;;4993395;28;20521;-69
2021/05/31 08:45:55;;;;;;;2.85;1.70;;;;;;;;;;4993197;28;20413;-70
2021/05/31 08:48:23;;;;;;;2.28;1.60;;;;;;;;;;4991541;28;20060;-71
2021/05/31 08:50:50;;;;;;;2.17;1.38;;;;;;;;;;4991874;28;20089;-70
2021/05/31 08:53:16;;;;;;;2.50;1.60;;;;;;;;;;5020641;23;20538;-71
2021/05/31 08:55:43;;;;;;;1.90;1.50;;;;;;;;;;4973661;28;20047;-73
2021/05/31 08:58:10;;;;;;;1.88;1.70;;;;;;;;;;4972866;28;20137;-69
2021/05/31 09:00:37;;;;;;;4.65;1.65;;;;;;;;;;4976416;28;20062;-68
2021/05/31 09:03:05;;;;;;;3.17;1.85;;;;;;;;;;4959361;28;20146;-73
2021/05/31 09:05:39;;;;;;;2.80;1.70;;;;;;;;;;4966324;28;20464;-71
2021/05/31 09:08:10;;;;;;;2.10;1.75;;;;;;;;;;4973391;28;20101;-72
2021/05/31 09:10:37;;;;;;;1.90;1.60;;;;;;;;;;4972194;28;20062;-72
2021/05/31 09:13:04;;;;;;;2.78;1.90;;;;;;;;;;4972148;28;20050;-71
2021/05/31 09:15:34;;;;;;;2.42;1.50;;;;;;;;;;4972879;28;20054;-72
2021/05/31 09:18:00;;;;;;;1.80;1.50;;;;;;;;;;4974223;28;20047;-72
2021/05/31 09:20:27;;;;;;;2.67;1.80;;;;;;;;;;4965296;28;20090;-76
2021/05/31 09:22:56;;;;;;;3.80;2.00;;;;;;;;;;4961496;28;20195;-72
2021/05/31 09:25:29;;;;;;;2.50;1.45;;;;;;;;;;4965686;28;20490;-72
2021/05/31 09:28:02;;;;;;;2.72;2.47;;;;;;;;;;4967180;28;20047;-71
2021/05/31 09:30:39;;;;;;;1.73;1.63;;;;;;;;;;4963398;28;20085;-72
2021/05/31 09:33:07;;;;;;;1.73;1.63;;;;;;;;;;4967729;28;20051;-76
2021/05/31 09:35:38;;;;;;;2.10;1.60;;;;;;;;;;4976932;28;20047;-75
2021/05/31 09:38:06;;;;;;;4.10;1.75;;;;;;;;;;4971627;28;20054;-73
2021/05/31 09:40:33;;;;;;;3.05;1.83;;;;;;;;;;4965881;28;20224;-71
2021/05/31 09:43:01;;;;;;;3.03;2.22;;;;;;;;;;4964681;28;20137;-73
2021/05/31 09:45:33;;;;;;;2.55;1.98;;;;;;;;;;4965101;28;20053;-74
2021/05/31 09:48:00;;;;;;;2.10;1.60;;;;;;;;;;4969879;28;20605;-76
2021/05/31 09:50:32;;;;;;;2.13;1.88;;;;;;;;;;4954275;28;20090;-74
2021/05/31 09:53:11;;;;;;;2.22;2.03;;;;;;;;;;4970389;28;20094;-76
2021/05/31 09:55:45;;;;;;;2.33;1.80;;;;;;;;;;4951280;28;21178;-73
2021/05/31 09:58:23;;;;;;;3.05;1.67;;;;;;;;;;4965841;28;20078;-75
2021/05/31 10:01:06;;;;;;;5.20;1.92;;;;;;;;;;4953956;28;20540;-72
2021/05/31 10:04:04;;;;;;;2.20;1.50;;;;;;;;;;4962886;28;20042;-73
2021/05/31 10:06:43;;;;;;;2.75;1.70;;;;;;;;;;4979248;28;20116;-73
2021/05/31 10:09:10;;;;;;;2.08;1.70;;;;;;;;;;4977652;28;20051;-73
2021/05/31 10:11:37;;;;;;;1.70;1.60;;;;;;;;;;4961534;28;20039;-73
2021/05/31 10:14:04;;;;;;;3.13;1.63;;;;;;;;;;4964013;28;20122;-74
2021/05/31 10:16:31;;;;;;;1.92;1.40;;;;;;;;;;4966650;28;20074;-72
2021/05/31 10:18:57;;;;;;;2.70;1.77;;;;;;;;;;4977757;28;20062;-75
2021/05/31 10:21:25;;;;;;;2.05;1.50;;;;;;;;;;4966473;28;20051;-74
2021/05/31 10:23:53;;;;;;;2.70;1.65;;;;;;;;;;4964796;28;20082;-75
2021/05/31 10:26:21;;;;;;;2.33;1.63;;;;;;;;;;4950442;28;20125;-73
2021/05/31 10:28:49;;;;;;;1.58;1.48;;;;;;;;;;4963118;28;20071;-74
2021/05/31 10:31:16;;;;;;;2.13;1.58;;;;;;;;;;4970055;28;20055;-74
2021/05/31 10:33:43;;;;;;;1.60;1.50;;;;;;;;;;4961601;28;20113;-73
2021/05/31 10:36:19;;;;;;;2.50;1.40;;;;;;;;;;4969248;28;20093;-74
2021/05/31 10:38:50;;;;;;;2.63;1.67;;;;;;;;;;4967842;28;20564;-73
2021/05/31 10:41:21;;;;;;;3.53;1.95;;;;;;;;;;4966179;28;20051;-74
2021/05/31 10:43:55;;;;;;;3.58;1.88;;;;;;;;;;4978627;28;20047;-73
2021/05/31 10:46:27;;;;;;;1.92;1.60;;;;;;;;;;4960787;28;20078;-76
2021/05/31 10:48:54;;;;;;;1.90;1.58;;;;;;;;;;4972420;28;20568;-72
2021/05/31 10:51:26;;;;;;;6.65;2.35;;;;;;;;;;4965052;28;20454;-75
2021/05/31 10:53:53;;;;;;;2.58;2.08;;;;;;;;;;4940297;28;20473;-76
2021/05/31 10:56:25;;;;;;;2.13;1.52;;;;;;;;;;4966067;28;20086;-75
2021/05/31 10:58:54;;;;;;;2.70;1.80;;;;;;;;;;4962359;28;20592;-75
2021/05/31 11:01:33;;;;;;;2.72;1.60;;;;;;;;;;4962313;28;20047;-75
2021/05/31 11:04:15;;;;;;;2.58;1.50;;;;;;;;;;4973619;28;20053;-76
2021/05/31 11:06:44;;;;;;;2.03;1.48;;;;;;;;;;4981594;28;20044;-75
2021/05/31 11:09:23;;;;;;;1.95;1.55;;;;;;;;;;4968478;28;20149;-75
2021/05/31 11:11:55;;;;;;;1.95;1.73;;;;;;;;;;4977681;28;20059;-76
2021/05/31 11:14:40;;;;;;;4.32;1.80;;;;;;;;;;4972169;28;20431;-75
2021/05/31 11:17:12;;;;;;;1.50;1.30;;;;;;;;;;4988280;28;20078;-75
2021/05/31 11:19:39;;;;;;;4.43;1.90;;;;;;;;;;4964575;28;20066;-75
2021/05/31 11:22:22;;;;;;;1.88;1.67;;;;;;;;;;4967573;28;20082;-75
2021/05/31 11:24:58;;;;;;;3.30;1.80;;;;;;;;;;4983059;28;20086;-75
2021/05/31 11:27:29;;;;;;;1.90;1.80;;;;;;;;;;4967167;28;20075;-75
2021/05/31 11:29:58;;;;;;;2.88;1.40;;;;;;;;;;4967058;28;20113;-76
2021/05/31 11:32:24;;;;;;;1.58;1.48;;;;;;;;;;4965662;28;20125;-75
2021/05/31 11:34:59;;;;;;;3.72;1.95;;;;;;;;;;4964622;28;20066;-75
2021/05/31 11:37:36;;;;;;;1.50;1.40;;;;;;;;;;4968778;28;20057;-75
2021/05/31 11:40:05;;;;;;;3.97;1.77;;;;;;;;;;4964733;28;20093;-75
2021/05/31 11:42:33;;;;;;;5.47;1.70;;;;;;;;;;4972507;28;20074;-75
2021/05/31 11:44:59;;;;;;;3.05;1.52;;;;;;;;;;4971423;28;20183;-75
2021/05/31 11:47:30;;;;;;;5.97;1.70;;;;;;;;;;4966447;28;20071;-75
2021/05/31 11:49:57;;;;;;;1.88;1.70;;;;;;;;;;4951584;28;24486;-75
2021/05/31 11:52:24;;;;;;;2.10;1.90;;;;;;;;;;4991895;28;20086;-75
2021/05/31 11:54:51;;;;;;;2.60;1.67;;;;;;;;;;4989772;28;20529;-75
2021/05/31 11:57:23;;;;;;;1.95;1.55;;;;;;;;;;4991850;28;20109;-75
2021/05/31 11:59:52;;;;;;;2.10;1.45;;;;;;;;;;4992709;28;20137;-75
2021/05/31 12:02:20;;;;;;;3.50;1.75;;;;;;;;;;4981898;28;20047;-75
2021/05/31 12:04:48;;;;;;;2.05;1.90;;;;;;;;;;4990546;28;20108;-75
2021/05/31 12:07:22;;;;;;;2.00;1.80;;;;;;;;;;4990040;28;20082;-75
2021/05/31 12:09:49;;;;;;;2.08;1.67;;;;;;;;;;4987991;28;20046;-75
2021/05/31 12:12:17;;;;;;;2.38;1.80;;;;;;;;;;4983997;28;20058;-75
2021/05/31 12:14:46;;;;;;;2.47;1.50;;;;;;;;;;4989558;28;20089;-75
2021/05/31 12:17:13;;;;;;;2.53;1.83;;;;;;;;;;5002426;28;20066;-75
2021/05/31 12:19:41;;;;;;;2.58;1.70;;;;;;;;;;4972746;28;20077;-75
2021/05/31 12:22:08;;;;;;;1.73;1.63;;;;;;;;;;4984409;28;20051;-76
2021/05/31 12:24:36;;;;;;;2.35;1.67;;;;;;;;;;4987022;28;20514;-75
2021/05/31 12:27:04;;;;;;;2.05;1.70;;;;;;;;;;5001101;28;20134;-75
2021/05/31 12:29:38;;;;;;;2.45;1.77;;;;;;;;;;4980280;28;20465;-75
2021/05/31 12:32:09;;;;;;;2.95;2.60;;;;;;;;;;4982065;28;20129;-75
2021/05/31 12:34:36;;;;;;;2.67;1.80;;;;;;;;;;4998198;28;20085;-75
2021/05/31 12:37:05;;;;;;;3.30;1.70;;;;;;;;;;4974702;28;20042;-75
2021/05/31 12:39:32;;;;;;;1.40;1.30;;;;;;;;;;4989404;28;20074;-75
2021/05/31 12:42:04;;;;;;;4.78;1.40;;;;;;;;;;4974468;28;20138;-75
2021/05/31 12:44:30;;;;;;;2.25;1.20;;;;;;;;;;4991888;28;20081;-76
2021/05/31 12:47:04;;;;;;;1.60;1.42;;;;;;;;;;4982388;28;20082;-75
2021/05/31 12:49:31;;;;;;;1.80;1.30;;;;;;;;;;4986576;28;20050;-75
2021/05/31 12:51:58;;;;;;;1.30;1.10;;;;;;;;;;4985777;28;20124;-76
2021/05/31 12:54:25;;;;;;;1.30;1.15;;;;;;;;;;4986297;28;20540;-76
2021/05/31 12:56:52;;;;;;;1.33;1.23;;;;;;;;;;4983079;28;20051;-76
2021/05/31 12:59:24;;;;;;;2.78;1.15;;;;;;;;;;4984490;28;20046;-75
2021/05/31 13:01:51;;;;;;;1.45;1.20;;;;;;;;;;4984940;28;20596;-76
2021/05/31 13:04:30;;;;;;;1.63;1.23;;;;;;;;;;4985205;28;20090;-75
2021/05/31 13:07:02;;;;;;;1.55;1.20;;;;;;;;;;4983438;28;20511;-76
2021/05/31 13:09:28;;;;;;;1.77;1.15;;;;;;;;;;4991173;28;20078;-75
2021/05/31 13:11:55;;;;;;;1.40;1.00;;;;;;;;;;4982386;28;20414;-75
2021/05/31 13:14:24;;;;;;;1.20;1.10;;;;;;;;;;4999849;28;20081;-75
2021/05/31 13:16:59;;;;;;;2.22;1.30;;;;;;;;;;4985197;28;20081;-74
2021/05/31 13:19:27;;;;;;;1.42;1.33;;;;;;;;;;4986763;28;20077;-75
2021/05/31 13:22:05;;;;;;;1.70;1.33;;;;;;;;;;4983309;28;20464;-75
2021/05/31 13:24:32;;;;;;;1.75;1.38;;;;;;;;;;4989687;28;20081;-74
2021/05/31 13:27:14;;;;;;;2.97;1.20;;;;;;;;;;4982520;28;20101;-75
2021/05/31 13:29:57;;;;;;;2.83;1.35;;;;;;;;;;4986905;28;20513;-75
2021/05/31 13:32:24;;;;;;;1.75;1.20;;;;;;;;;;4979857;28;20074;-72
2021/05/31 13:35:05;;;;;;;1.38;1.27;;;;;;;;;;4985593;28;20082;-72
2021/05/31 13:37:32;;;;;;;5.57;1.38;;;;;;;;;;4984871;28;20494;-72
2021/05/31 13:40:02;;;;;;;2.35;1.40;;;;;;;;;;4982164;28;20085;-72
2021/05/31 13:42:30;;;;;;;1.88;1.50;;;;;;;;;;4986584;28;20046;-72
2021/05/31 13:45:15;;;;;;;2.67;1.30;;;;;;;;;;4985251;28;20055;-71
2021/05/31 13:47:42;;;;;;;3.45;1.17;;;;;;;;;;4999152;28;20124;-71
2021/05/31 13:50:09;;;;;;;1.50;1.40;;;;;;;;;;4977393;28;20054;-72
2021/05/31 13:52:36;;;;;;;1.60;1.10;;;;;;;;;;4984221;28;20054;-71
2021/05/31 13:55:03;;;;;;;1.73;1.50;;;;;;;;;;4981445;28;20133;-71
2021/05/31 13:57:30;;;;;;;1.40;1.30;;;;;;;;;;4983269;28;20066;-71
2021/05/31 13:59:57;;;;;;;1.48;1.10;;;;;;;;;;4989853;28;20409;-72
2021/05/31 14:02:24;;;;;;;2.03;1.20;;;;;;;;;;4984665;28;20437;-74
2021/05/31 14:04:51;;;;;;;1.30;1.20;;;;;;;;;;4982507;28;20057;-74
2021/05/31 14:07:18;;;;;;;1.65;1.20;;;;;;;;;;4983726;28;20082;-73
2021/05/31 14:09:44;;;;;;;1.45;1.35;;;;;;;;;;4980691;28;20051;-74
2021/05/31 14:12:11;;;;;;;1.65;1.42;;;;;;;;;;4987025;28;20097;-73
2021/05/31 14:14:38;;;;;;;2.15;1.40;;;;;;;;;;4986017;28;20051;-73
2021/05/31 14:17:04;;;;;;;3.03;1.20;;;;;;;;;;4987087;28;20117;-73
2021/05/31 14:19:31;;;;;;;3.13;1.17;;;;;;;;;;4988212;28;20421;-73
2021/05/31 14:21:57;;;;;;;5.60;1.30;;;;;;;;;;4987143;28;20541;-73
2021/05/31 14:24:24;;;;;;;1.23;1.13;;;;;;;;;;4989404;28;20057;-73
2021/05/31 14:26:50;;;;;;;3.70;1.30;;;;;;;;;;4988188;28;20084;-75
2021/05/31 14:29:37;;;;;;;1.73;1.55;;;;;;;;;;4988655;28;20409;-76
2021/05/31 14:32:08;;;;;;;1.48;1.23;;;;;;;;;;4991637;28;20054;-75
2021/05/31 14:34:35;;;;;;;3.22;1.70;;;;;;;;;;4986396;28;20050;-74
2021/05/31 14:37:03;;;;;;;1.67;1.55;;;;;;;;;;4985372;28;20501;-73
2021/05/31 14:39:30;;;;;;;2.33;1.52;;;;;;;;;;4989077;28;20081;-77
2021/05/31 14:41:57;;;;;;;2.70;1.33;;;;;;;;;;4972666;28;20062;-73
2021/05/31 14:44:24;;;;;;;1.77;1.65;;;;;;;;;;4993451;28;20505;-74
2021/05/31 14:46:50;;;;;;;1.77;1.48;;;;;;;;;;4986954;28;20121;-73
2021/05/31 14:49:17;;;;;;;1.65;1.52;;;;;;;;;;4988701;28;20138;-77
2021/05/31 14:51:44;;;;;;;1.90;1.40;;;;;;;;;;4968712;28;20140;-75
2021/05/31 14:54:10;;;;;;;1.60;1.50;;;;;;;;;;5059499;22;20045;-72
2021/05/31 14:56:37;;;;;;;2.03;1.58;;;;;;;;;;5014219;28;20045;-71
2021/05/31 14:59:04;;;;;;;1.40;1.30;;;;;;;;;;5020166;28;20042;-77
2021/05/31 15:02:09;;;;;;;1.77;1.60;;;;;;;;;;5022025;28;20060;-77
2021/05/31 15:04:36;;;;;;;2.33;1.42;;;;;;;;;;4977439;28;20129;-71